createdAt,value
2018-03-04T00:00:25.102Z,27.40
2018-03-04T00:02:52.589Z,31.40
2018-03-04T00:05:20.058Z,23.50
2018-03-04T00:07:47.557Z,32.20
2018-03-04T00:10:15.046Z,31.10
2018-03-04T00:12:42.526Z,25.30
2018-03-04T00:15:10.069Z,33.67
2018-03-04T00:17:37.552Z,38.70
2018-03-04T00:20:05.056Z,37.07
2018-03-04T00:22:41.308Z,31.63
2018-03-04T00:25:08.801Z,34.90
2018-03-04T00:27:36.281Z,33.93
2018-03-04T00:30:03.780Z,24.33
2018-03-04T00:32:31.246Z,28.40
2018-03-04T00:34:58.706Z,31.33
2018-03-04T00:37:26.209Z,21.73
2018-03-04T00:39:53.677Z,40.33
2018-03-04T00:42:21.154Z,25.10
2018-03-04T00:44:48.661Z,22.63
2018-03-04T00:47:16.133Z,26.63
2018-03-04T00:49:44.418Z,32.72
2018-03-04T00:52:11.926Z,31.73
2018-03-04T00:54:39.416Z,21.60
2018-03-04T00:57:06.905Z,17.48
2018-03-04T00:59:34.405Z,25.02
2018-03-04T01:02:01.876Z,21.83
2018-03-04T01:04:29.597Z,22.45
2018-03-04T01:06:57.065Z,19.45
2018-03-04T01:09:24.572Z,28.98
2018-03-04T01:11:52.035Z,28.87
2018-03-04T01:14:19.526Z,24.03
2018-03-04T01:16:46.998Z,17.87
2018-03-04T01:19:14.537Z,34.08
2018-03-04T01:21:42.014Z,22.70
2018-03-04T01:24:09.560Z,30.48
2018-03-04T01:26:36.995Z,27.97
2018-03-04T01:29:04.454Z,19.10
2018-03-04T01:31:32.704Z,15.47
2018-03-04T01:34:00.190Z,22.75
2018-03-04T01:36:27.658Z,38.70
2018-03-04T01:38:55.145Z,30.60
2018-03-04T01:41:22.614Z,25.52
2018-03-04T01:43:50.095Z,27.53
2018-03-04T01:46:17.561Z,13.13
2018-03-04T01:48:45.058Z,29.87
2018-03-04T01:51:12.509Z,36.80
2018-03-04T01:53:40.754Z,22.53
2018-03-04T01:56:08.222Z,29.20
2018-03-04T01:58:36.469Z,24.33
2018-03-04T02:01:03.933Z,35.35
2018-03-04T02:03:31.385Z,26.10
2018-03-04T02:05:58.881Z,37.50
2018-03-04T02:08:27.134Z,23.00
2018-03-04T02:10:54.626Z,25.23
2018-03-04T02:13:22.082Z,30.53
2018-03-04T02:15:50.333Z,30.40
2018-03-04T02:18:17.834Z,22.30
2018-03-04T02:20:45.306Z,20.23
2018-03-04T02:23:12.761Z,19.10
2018-03-04T02:25:40.270Z,20.77
2018-03-04T02:28:07.717Z,30.13
2018-03-04T02:30:35.188Z,32.43
2018-03-04T02:33:02.665Z,28.93
2018-03-04T02:35:30.155Z,19.70
2018-03-04T02:37:57.638Z,41.60
2018-03-04T02:40:25.121Z,21.23
2018-03-04T02:42:53.371Z,32.20
2018-03-04T02:45:20.846Z,34.27
2018-03-04T02:47:48.347Z,27.77
2018-03-04T02:50:15.807Z,35.03
2018-03-04T02:52:43.290Z,36.27
2018-03-04T02:55:10.754Z,25.97
2018-03-04T02:57:38.248Z,21.23
2018-03-04T03:00:05.748Z,28.37
2018-03-04T03:02:33.229Z,29.97
2018-03-04T03:05:00.695Z,22.07
2018-03-04T03:07:28.174Z,17.13
2018-03-04T03:09:55.686Z,23.70
2018-03-04T03:12:23.153Z,33.17
2018-03-04T03:14:50.629Z,27.92
2018-03-04T03:17:18.106Z,25.30
2018-03-04T03:19:45.591Z,35.93
2018-03-04T03:22:13.058Z,18.90
2018-03-04T03:24:40.554Z,37.73
2018-03-04T03:27:08.021Z,29.03
2018-03-04T03:29:35.489Z,39.95
2018-03-04T03:32:02.965Z,23.10
2018-03-04T03:34:31.219Z,37.50
2018-03-04T03:39:32.652Z,29.23
2018-03-04T03:42:00.142Z,35.27
2018-03-04T03:44:27.606Z,34.63
2018-03-04T03:46:55.094Z,38.57
2018-03-04T03:49:23.340Z,30.97
2018-03-04T03:51:50.830Z,23.13
2018-03-04T03:54:19.062Z,24.27
2018-03-04T03:56:46.526Z,37.93
2018-03-04T03:59:14.009Z,24.83
2018-03-04T04:01:41.475Z,36.77
2018-03-04T04:04:09.738Z,41.30
2018-03-04T04:06:37.202Z,41.03
2018-03-04T04:09:05.493Z,41.30
2018-03-04T04:11:33.729Z,37.67
2018-03-04T04:14:01.190Z,38.20
2018-03-04T04:16:28.673Z,38.63
2018-03-04T04:18:56.930Z,33.83
2018-03-04T04:21:25.187Z,36.90
2018-03-04T04:23:52.711Z,27.27
2018-03-04T04:26:20.221Z,40.00
2018-03-04T04:28:47.683Z,27.27
2018-03-04T04:31:15.154Z,41.07
2018-03-04T04:33:42.642Z,37.20
2018-03-04T04:36:10.105Z,29.20
2018-03-04T04:38:37.689Z,26.87
2018-03-04T04:41:05.150Z,17.10
2018-03-04T04:43:32.641Z,41.60
2018-03-04T04:46:00.110Z,41.70
2018-03-04T04:48:27.609Z,40.47
2018-03-04T04:50:55.081Z,38.57
2018-03-04T04:53:22.561Z,36.90
2018-03-04T04:55:50.042Z,40.20
2018-03-04T04:58:18.278Z,33.65
2018-03-04T05:00:45.766Z,32.47
2018-03-04T05:03:13.218Z,28.27
2018-03-04T05:05:40.706Z,32.23
2018-03-04T05:08:08.995Z,42.47
2018-03-04T05:10:36.489Z,35.00
2018-03-04T05:13:04.074Z,40.63
2018-03-04T05:15:32.325Z,40.33
2018-03-04T05:17:59.794Z,36.20
2018-03-04T05:20:27.289Z,36.77
2018-03-04T05:22:55.540Z,21.43
2018-03-04T05:25:22.998Z,25.87
2018-03-04T05:27:50.495Z,40.83
2018-03-04T05:30:17.962Z,40.20
2018-03-04T05:32:45.432Z,36.90
2018-03-04T05:35:12.930Z,36.50
2018-03-04T05:37:40.409Z,37.47
2018-03-04T05:40:07.882Z,39.07
2018-03-04T05:42:36.146Z,40.00
2018-03-04T05:45:03.609Z,41.97
2018-03-04T05:47:31.862Z,39.53
2018-03-04T05:49:59.345Z,40.30
2018-03-04T05:52:26.818Z,44.13
2018-03-04T05:54:54.317Z,44.43
2018-03-04T05:57:21.896Z,43.27
2018-03-04T05:59:49.373Z,36.77
2018-03-04T06:02:16.862Z,39.97
2018-03-04T06:04:44.339Z,40.67
2018-03-04T06:07:11.869Z,37.50
2018-03-04T06:09:40.099Z,38.90
2018-03-04T06:12:07.586Z,31.73
2018-03-04T06:14:35.057Z,31.07
2018-03-04T06:17:03.308Z,29.43
2018-03-04T06:19:30.805Z,35.90
2018-03-04T06:21:58.265Z,38.80
2018-03-04T06:24:25.750Z,30.10
2018-03-04T06:26:53.233Z,39.93
2018-03-04T06:29:20.720Z,34.22
2018-03-04T06:31:48.181Z,40.60
2018-03-04T06:34:15.654Z,39.70
2018-03-04T06:36:43.153Z,40.57
2018-03-04T06:39:10.629Z,28.40
2018-03-04T06:41:38.094Z,37.10
2018-03-04T06:44:05.585Z,36.43
2018-03-04T06:46:33.115Z,32.77
2018-03-04T06:49:00.614Z,39.43
2018-03-04T06:51:28.083Z,40.80
2018-03-04T06:53:55.546Z,39.77
2018-03-04T06:56:23.029Z,20.67
2018-03-04T06:58:50.526Z,26.10
2018-03-04T07:01:18.770Z,39.53
2018-03-04T07:03:46.238Z,40.33
2018-03-04T07:06:13.718Z,33.17
2018-03-04T07:08:41.951Z,40.73
2018-03-04T07:11:09.445Z,25.47
2018-03-04T07:13:36.918Z,35.80
2018-03-04T07:16:05.169Z,40.30
2018-03-04T07:18:32.646Z,19.57
2018-03-04T07:21:00.899Z,34.07
2018-03-04T07:23:28.415Z,28.40
2018-03-04T07:25:55.861Z,29.57
2018-03-04T07:28:23.317Z,33.50
2018-03-04T07:30:50.777Z,38.73
2018-03-04T07:33:18.269Z,34.27
2018-03-04T07:35:45.757Z,24.40
2018-03-04T07:38:13.220Z,27.57
2018-03-04T07:40:40.728Z,36.87
2018-03-04T07:43:08.158Z,42.33
2018-03-04T07:45:36.413Z,38.10
2018-03-04T07:48:03.875Z,32.90
2018-03-04T07:50:32.142Z,36.87
2018-03-04T07:52:59.617Z,34.50
2018-03-04T07:55:27.084Z,40.60
2018-03-04T07:57:54.572Z,35.43
2018-03-04T08:00:22.042Z,31.67
2018-03-04T08:02:49.549Z,30.10
2018-03-04T08:05:17.785Z,18.87
2018-03-04T08:07:45.242Z,44.27
2018-03-04T08:10:12.725Z,29.57
2018-03-04T08:12:40.205Z,30.27
2018-03-04T08:15:08.444Z,36.90
2018-03-04T08:17:35.935Z,34.03
2018-03-04T08:20:04.299Z,32.20
2018-03-04T08:22:31.920Z,28.73
2018-03-04T08:28:13.906Z,34.73
2018-03-04T08:30:42.157Z,36.73
2018-03-04T08:33:09.610Z,37.67
2018-03-04T08:35:37.084Z,37.07
2018-03-04T08:38:05.309Z,38.10
2018-03-04T08:40:32.793Z,30.17
2018-03-04T08:43:00.285Z,35.47
2018-03-04T08:45:28.556Z,40.87
2018-03-04T08:47:56.005Z,32.13
2018-03-04T08:50:23.467Z,24.40
2018-03-04T08:52:51.713Z,41.17
2018-03-04T08:55:19.177Z,26.83
2018-03-04T08:57:46.667Z,31.17
2018-03-04T09:00:14.901Z,35.77
2018-03-04T09:02:42.422Z,28.17
2018-03-04T09:05:10.053Z,21.80
2018-03-04T09:07:38.292Z,22.00
2018-03-04T09:10:06.112Z,41.13
2018-03-04T09:12:33.577Z,41.33
2018-03-04T09:15:01.149Z,32.30
2018-03-04T09:17:28.610Z,36.03
2018-03-04T09:19:56.134Z,32.87
2018-03-04T09:22:23.638Z,36.87
2018-03-04T09:24:51.108Z,32.50
2018-03-04T09:27:18.593Z,37.17
2018-03-04T09:29:46.094Z,40.30
2018-03-04T09:32:13.585Z,35.13
2018-03-04T09:34:41.047Z,26.50
2018-03-04T09:37:08.534Z,37.73
2018-03-04T09:39:36.002Z,40.23
2018-03-04T09:42:03.487Z,26.20
2018-03-04T09:44:30.999Z,27.50
2018-03-04T09:46:58.458Z,29.43
2018-03-04T09:49:25.946Z,31.07
2018-03-04T09:51:54.169Z,33.83
2018-03-04T09:54:21.649Z,42.38
2018-03-04T09:56:49.191Z,36.70
2018-03-04T09:59:17.407Z,14.27
2018-03-04T10:01:44.881Z,37.00
2018-03-04T10:04:13.098Z,31.50
2018-03-04T10:06:40.600Z,24.87
2018-03-04T10:09:08.066Z,30.23
2018-03-04T10:11:36.284Z,30.30
2018-03-04T10:14:03.765Z,30.53
2018-03-04T10:16:31.237Z,32.43
2018-03-04T10:18:58.728Z,28.70
2018-03-04T10:21:26.954Z,31.10
2018-03-04T10:23:54.414Z,29.47
2018-03-04T10:26:21.900Z,23.07
2018-03-04T10:28:50.176Z,28.63
2018-03-04T10:31:17.678Z,26.97
2018-03-04T10:33:45.149Z,27.37
2018-03-04T10:36:12.629Z,24.43
2018-03-04T10:38:41.758Z,26.77
2018-03-04T10:41:09.528Z,26.90
2018-03-04T10:43:37.045Z,25.63
2018-03-04T10:46:04.533Z,13.03
2018-03-04T10:48:32.005Z,18.50
2018-03-04T10:51:00.247Z,25.67
2018-03-04T10:53:27.722Z,22.13
2018-03-04T10:55:55.227Z,17.77
2018-03-04T10:58:22.693Z,23.60
2018-03-04T11:00:55.054Z,23.80
2018-03-04T11:03:22.581Z,15.57
2018-03-04T11:05:50.798Z,24.50
2018-03-04T11:08:18.335Z,21.80
2018-03-04T11:10:45.803Z,23.73
2018-03-04T11:13:13.285Z,24.40
2018-03-04T11:15:40.736Z,24.23
2018-03-04T11:18:08.315Z,23.60
2018-03-04T11:20:35.773Z,22.43
2018-03-04T11:23:03.234Z,23.60
2018-03-04T11:25:30.724Z,21.63
2018-03-04T11:27:58.966Z,24.63
2018-03-04T11:30:27.188Z,25.73
2018-03-04T11:32:54.658Z,23.90
2018-03-04T11:35:22.145Z,23.37
2018-03-04T11:37:49.596Z,21.50
2018-03-04T11:40:17.069Z,25.23
2018-03-04T11:42:44.544Z,21.37
2018-03-04T11:45:12.011Z,20.30
2018-03-04T11:47:39.485Z,17.57
2018-03-04T11:50:07.712Z,20.03
2018-03-04T11:52:35.161Z,23.20
2018-03-04T11:55:02.640Z,22.30
2018-03-04T11:57:30.100Z,19.93
2018-03-04T11:59:57.620Z,19.27
2018-03-04T12:02:25.089Z,19.40
2018-03-04T12:04:52.563Z,18.80
2018-03-04T12:07:20.060Z,18.80
2018-03-04T12:09:47.521Z,21.23
2018-03-04T12:12:14.974Z,22.63
2018-03-04T12:14:42.476Z,23.00
2018-03-04T12:17:09.990Z,14.33
2018-03-04T12:19:37.465Z,19.40
2018-03-04T12:22:05.692Z,13.13
2018-03-04T12:24:33.182Z,19.70
2018-03-04T12:27:00.645Z,16.00
2018-03-04T12:29:28.109Z,23.93
2018-03-04T12:31:56.349Z,19.20
2018-03-04T12:34:23.842Z,14.27
2018-03-04T12:36:51.312Z,19.80
2018-03-04T12:39:19.533Z,10.27
2018-03-04T12:41:47.019Z,17.83
2018-03-04T12:44:14.536Z,20.43
2018-03-04T12:46:42.020Z,19.77
2018-03-04T12:49:10.091Z,11.70
2018-03-04T12:51:37.573Z,17.40
2018-03-04T12:54:05.054Z,16.93
2018-03-04T12:56:32.548Z,16.07
2018-03-04T12:59:00.110Z,9.80
2018-03-04T13:01:27.584Z,14.20
2018-03-04T13:03:55.166Z,9.87
2018-03-04T13:06:22.698Z,14.13
2018-03-04T13:08:50.904Z,7.33
2018-03-04T13:11:18.361Z,5.53
2018-03-04T13:13:45.860Z,9.77
2018-03-04T13:16:13.337Z,12.60
2018-03-04T13:32:24.205Z,13.90
2018-03-04T13:34:51.661Z,12.60
2018-03-04T13:37:19.138Z,13.20
2018-03-04T13:39:46.618Z,12.10
2018-03-04T13:42:14.108Z,12.47
2018-03-04T13:44:42.354Z,12.03
2018-03-04T13:47:09.956Z,12.17
2018-03-04T13:49:37.438Z,12.90
2018-03-04T13:52:04.926Z,13.80
2018-03-04T13:54:32.466Z,15.97
2018-03-04T13:56:59.953Z,15.17
2018-03-04T13:59:27.417Z,15.47
2018-03-04T14:01:54.902Z,13.07
2018-03-04T14:04:22.364Z,12.50
2018-03-04T14:06:49.848Z,11.40
2018-03-04T14:09:17.348Z,13.80
2018-03-04T14:11:44.813Z,13.20
2018-03-04T14:14:12.282Z,12.13
2018-03-04T14:16:39.756Z,11.30
2018-03-04T14:19:07.241Z,13.83
2018-03-04T14:21:34.692Z,12.80
2018-03-04T14:24:02.155Z,11.87
2018-03-04T14:26:29.633Z,12.33
2018-03-04T14:28:57.507Z,14.70
2018-03-04T14:31:25.788Z,14.60
2018-03-04T14:33:53.275Z,15.10
2018-03-04T14:36:21.527Z,15.00
2018-03-04T14:38:48.996Z,15.47
2018-03-04T14:41:16.468Z,15.23
2018-03-04T14:43:44.720Z,16.40
2018-03-04T14:46:12.177Z,13.70
2018-03-04T14:48:39.661Z,13.83
2018-03-04T14:51:07.885Z,12.13
2018-03-04T14:53:35.366Z,12.50
2018-03-04T14:56:02.837Z,12.90
2018-03-04T14:58:30.337Z,11.60
2018-03-04T15:00:57.804Z,11.37
2018-03-04T15:03:25.261Z,11.13
2018-03-04T15:05:52.725Z,11.97
2018-03-04T15:08:20.213Z,10.63
2018-03-04T15:10:47.688Z,11.57
2018-03-04T15:13:15.164Z,9.20
2018-03-04T15:15:42.637Z,9.30
2018-03-04T15:18:10.469Z,10.43
2018-03-04T15:20:37.985Z,9.53
2018-03-04T15:23:05.471Z,12.37
2018-03-04T15:25:33.010Z,10.77
2018-03-04T15:28:00.486Z,9.83
2018-03-04T15:30:27.939Z,10.40
2018-03-04T15:32:55.421Z,11.50
2018-03-04T15:35:22.880Z,10.43
2018-03-04T15:37:50.389Z,12.93
2018-03-04T15:40:17.876Z,12.03
2018-03-04T15:42:45.333Z,14.07
2018-03-04T15:45:12.813Z,14.47
2018-03-04T15:47:40.330Z,13.23
2018-03-04T15:50:07.855Z,14.57
2018-03-04T15:52:35.320Z,13.20
2018-03-04T15:55:02.816Z,12.00
2018-03-04T15:57:30.269Z,12.20
2018-03-04T15:59:57.749Z,11.87
2018-03-04T16:02:25.273Z,12.47
2018-03-04T16:04:52.739Z,12.60
2018-03-04T16:07:20.201Z,13.00
2018-03-04T16:09:47.694Z,11.47
2018-03-04T16:12:15.162Z,12.57
2018-03-04T16:14:42.684Z,13.30
2018-03-04T16:17:10.150Z,12.00
2018-03-04T16:19:37.660Z,12.63
2018-03-04T16:22:05.933Z,11.63
2018-03-04T16:24:34.221Z,11.43
2018-03-04T16:27:01.658Z,11.97
2018-03-04T16:29:29.881Z,10.63
2018-03-04T16:31:57.360Z,12.33
2018-03-04T16:34:24.844Z,11.40
2018-03-04T16:36:53.091Z,12.00
2018-03-04T16:39:20.574Z,12.60
2018-03-04T16:41:48.031Z,11.67
2018-03-04T16:44:15.510Z,11.73
2018-03-04T16:46:43.760Z,12.83
2018-03-04T16:49:11.257Z,10.60
2018-03-04T16:51:38.738Z,12.90
2018-03-04T16:54:06.217Z,12.90
2018-03-04T16:56:33.673Z,11.80
2018-03-04T16:59:01.158Z,13.17
2018-03-04T17:01:28.628Z,11.73
2018-03-04T17:03:56.101Z,13.20
2018-03-04T17:06:23.558Z,13.37
2018-03-04T17:08:51.067Z,12.10
2018-03-04T17:11:18.523Z,12.40
2018-03-04T17:13:46.022Z,11.27
2018-03-04T17:16:14.294Z,12.50
2018-03-04T17:18:41.785Z,11.10
2018-03-04T17:21:09.359Z,12.40
2018-03-04T17:23:36.816Z,13.13
2018-03-04T17:26:04.309Z,10.57
2018-03-04T17:28:31.764Z,12.70
2018-03-04T17:30:59.223Z,13.13
2018-03-04T17:33:26.704Z,11.67
2018-03-04T17:35:54.934Z,12.17
2018-03-04T17:38:22.393Z,12.13
2018-03-04T17:40:49.877Z,11.87
2018-03-04T17:43:17.353Z,10.43
2018-03-04T17:45:45.600Z,11.03
2018-03-04T17:48:13.098Z,12.40
2018-03-04T17:50:41.345Z,12.33
2018-03-04T17:53:08.967Z,13.47
2018-03-04T17:55:36.469Z,14.23
2018-03-04T17:58:03.933Z,11.43
2018-03-04T18:00:31.392Z,11.70
2018-03-04T18:02:58.873Z,14.50
2018-03-04T18:05:27.107Z,13.73
2018-03-04T18:07:54.599Z,13.47
2018-03-04T18:10:22.891Z,11.87
2018-03-04T18:12:50.620Z,12.73
2018-03-04T18:15:18.136Z,10.30
2018-03-04T18:17:45.695Z,10.20
2018-03-04T18:20:13.480Z,12.40
2018-03-04T18:22:40.961Z,12.57
2018-03-04T18:25:08.587Z,12.60
2018-03-04T18:27:36.335Z,12.57
2018-03-04T18:30:03.997Z,11.13
2018-03-04T18:32:31.473Z,13.73
2018-03-04T18:34:58.936Z,13.67
2018-03-04T18:37:26.490Z,12.23
2018-03-04T18:39:54.826Z,10.40
2018-03-04T18:42:23.092Z,13.17
2018-03-04T18:44:50.566Z,11.20
2018-03-04T18:47:18.799Z,9.47
2018-03-04T18:49:46.281Z,12.30
2018-03-04T18:52:13.735Z,12.13
2018-03-04T18:54:41.229Z,12.63
2018-03-04T18:57:08.784Z,12.23
2018-03-04T18:59:36.302Z,16.10
2018-03-04T19:02:03.761Z,12.80
2018-03-04T19:04:31.243Z,11.87
2018-03-04T19:06:59.509Z,13.50
2018-03-04T19:09:26.981Z,10.80
2018-03-04T19:11:55.233Z,8.00
2018-03-04T19:14:22.708Z,12.70
2018-03-04T19:16:50.199Z,10.80
2018-03-04T19:19:17.664Z,12.27
2018-03-04T19:21:45.177Z,10.90
2018-03-04T19:24:12.639Z,10.87
2018-03-04T19:26:40.102Z,10.17
2018-03-04T19:29:07.569Z,11.83
2018-03-04T19:31:35.050Z,10.83
2018-03-04T19:34:02.518Z,10.37
2018-03-04T19:36:30.018Z,6.70
2018-03-04T19:38:57.503Z,6.20
2018-03-04T19:41:25.742Z,8.70
2018-03-04T19:43:53.225Z,8.63
2018-03-04T19:46:20.811Z,8.90
2018-03-04T19:48:48.304Z,8.07
2018-03-04T19:51:15.794Z,8.30
2018-03-04T19:53:44.180Z,8.67
2018-03-04T19:56:12.437Z,9.30
2018-03-04T19:58:39.997Z,6.67
2018-03-04T20:01:07.482Z,8.90
2018-03-04T20:03:35.925Z,8.50
2018-03-04T20:06:03.431Z,9.23
2018-03-04T20:08:31.744Z,8.77
2018-03-04T20:10:59.312Z,8.23
2018-03-04T20:13:26.796Z,11.20
2018-03-04T20:15:54.281Z,11.50
2018-03-04T20:18:22.621Z,10.97
2018-03-04T20:20:50.341Z,11.53
2018-03-04T20:23:17.982Z,10.40
2018-03-04T20:25:45.477Z,6.60
2018-03-04T20:28:13.069Z,11.17
2018-03-04T20:30:40.645Z,10.73
2018-03-04T20:33:08.184Z,14.10
2018-03-04T20:35:35.802Z,12.47
2018-03-04T20:38:03.328Z,13.00
2018-03-04T20:40:30.846Z,7.97
2018-03-04T20:42:58.337Z,13.43
2018-03-04T20:45:26.106Z,11.23
2018-03-04T20:47:53.597Z,15.80
2018-03-04T20:50:21.853Z,16.23
2018-03-04T20:52:49.366Z,15.60
2018-03-04T20:55:16.936Z,12.57
2018-03-04T20:57:44.464Z,16.87
2018-03-04T21:00:12.105Z,14.13
2018-03-04T21:02:40.341Z,13.30
2018-03-04T21:05:08.827Z,15.00
2018-03-04T21:07:36.465Z,9.23
2018-03-04T21:10:04.053Z,16.90
2018-03-04T21:12:31.795Z,18.93
2018-03-04T21:14:59.335Z,17.80
2018-03-04T21:17:26.970Z,18.40
2018-03-04T21:19:54.567Z,17.97
2018-03-04T21:22:22.041Z,20.37
2018-03-04T21:24:49.545Z,21.57
2018-03-04T21:27:17.003Z,23.47
2018-03-04T21:29:44.482Z,22.93
2018-03-04T21:32:11.932Z,21.13
2018-03-04T21:34:39.553Z,22.63
2018-03-04T21:37:07.002Z,23.77
2018-03-04T21:39:34.513Z,24.77
2018-03-04T21:42:01.971Z,25.23
2018-03-04T21:44:30.214Z,27.23
2018-03-04T21:46:57.718Z,22.20
2018-03-04T21:49:25.228Z,23.30
2018-03-04T21:51:52.713Z,25.77
2018-03-04T21:54:20.203Z,20.37
2018-03-04T21:56:47.701Z,24.23
2018-03-04T21:59:15.134Z,25.87
2018-03-04T22:01:42.590Z,26.13
2018-03-04T22:04:10.089Z,25.07
2018-03-04T22:06:37.537Z,25.57
2018-03-04T22:09:05.013Z,25.03
2018-03-04T22:11:32.506Z,22.70
2018-03-04T22:13:59.982Z,23.40
2018-03-04T22:16:27.510Z,24.87
2018-03-04T22:18:55.013Z,17.53
2018-03-04T22:21:22.474Z,22.73
2018-03-04T22:23:49.970Z,24.60
2018-03-04T22:26:17.428Z,21.50
2018-03-04T22:28:44.903Z,15.83
2018-03-04T22:31:12.379Z,17.23
2018-03-04T22:33:39.874Z,17.43
2018-03-04T22:36:07.337Z,15.83
2018-03-04T22:38:34.789Z,10.63
2018-03-04T22:41:02.266Z,10.80
2018-03-04T22:43:29.747Z,11.43
2018-03-04T22:45:57.986Z,10.17
2018-03-04T22:48:25.466Z,9.57
2018-03-04T22:50:52.938Z,9.90
2018-03-04T22:53:21.165Z,10.80
2018-03-04T22:55:48.651Z,7.40
2018-03-04T22:58:16.145Z,8.00
2018-03-04T23:00:43.639Z,5.43
2018-03-04T23:03:11.104Z,6.53
2018-03-04T23:05:38.568Z,6.30
2018-03-04T23:08:06.041Z,5.40
2018-03-04T23:10:33.502Z,6.63
2018-03-04T23:13:00.957Z,4.30
2018-03-04T23:15:28.439Z,4.10
2018-03-04T23:17:55.918Z,5.70
2018-03-04T23:20:23.484Z,5.20
2018-03-04T23:22:50.947Z,5.00
2018-03-04T23:25:18.409Z,4.47
2018-03-04T23:27:45.849Z,3.97
2018-03-04T23:30:13.334Z,5.20
2018-03-04T23:32:40.794Z,4.47
2018-03-04T23:35:08.258Z,4.83
2018-03-04T23:37:35.729Z,5.50
2018-03-04T23:40:03.204Z,3.87
2018-03-04T23:42:30.678Z,5.30
2018-03-04T23:44:58.165Z,4.60
2018-03-04T23:47:25.651Z,6.10
2018-03-04T23:49:53.170Z,4.13
2018-03-04T23:52:20.631Z,5.33
2018-03-04T23:54:48.113Z,6.40
2018-03-04T23:57:15.570Z,5.40
2018-03-04T23:59:43.049Z,5.80
